Time,TemperatureF,DewpointF,PressureIn,WindDirection,WindDirectionDegrees,WindSpeedMPH,WindSpeedGustMPH,Humidity,HourlyPrecipIn,Conditions,Clouds,dailyrainin,SolarRadiationWatts/m^2,SoftwareType,DateUTC
2013-02-21 00:09:00,31.6,21.0,29.73,South,176,8.0,13.0,66,0.00,,,0.00,0,weatherlink.com 1.10,2013-02-21 07:09:00,
2013-02-21 00:24:00,31.4,21.0,29.73,SSW,195,4.0,18.0,66,0.00,,,0.00,0,weatherlink.com 1.10,2013-02-21 07:24:00,
2013-02-21 00:39:00,31.4,20.0,29.74,SW,215,4.0,18.0,64,0.00,,,0.00,0,weatherlink.com 1.10,2013-02-21 07:39:00,
2013-02-21 00:54:00,31.1,21.0,29.74,SW,232,10.0,17.0,66,0.00,,,0.00,0,weatherlink.com 1.10,2013-02-21 07:54:00,
2013-02-21 01:09:00,31.0,22.0,29.75,SW,231,15.0,17.0,69,0.00,,,0.00,0,weatherlink.com 1.10,2013-02-21 08:09:00,
2013-02-21 01:24:00,31.3,22.0,29.75,SW,214,11.0,22.0,68,0.00,,,0.00,0,weatherlink.com 1.10,2013-02-21 08:24:00,
2013-02-21 01:39:00,30.9,22.0,29.75,SW,215,7.0,19.0,70,0.00,,,0.00,0,weatherlink.com 1.10,2013-02-21 08:39:00,
2013-02-21 01:55:00,30.4,23.0,29.76,SW,225,7.0,17.0,73,0.00,,,0.00,0,weatherlink.com 1.10,2013-02-21 08:55:00,
2013-02-21 02:10:00,29.9,23.0,29.76,SSW,200,7.0,14.0,75,0.00,,,0.00,0,weatherlink.com 1.10,2013-02-21 09:10:00,
2013-02-21 02:25:00,29.5,23.0,29.77,South,188,10.0,15.0,76,0.00,,,0.00,0,weatherlink.com 1.10,2013-02-21 09:25:00,
2013-02-21 02:40:00,29.5,23.0,29.78,SSW,203,5.0,12.0,77,0.00,,,0.00,0,weatherlink.com 1.10,2013-02-21 09:40:00,
2013-02-21 02:55:00,29.3,24.0,29.78,SSW,210,9.0,12.0,80,0.00,,,0.00,0,weatherlink.com 1.10,2013-02-21 09:55:00,
2013-02-21 03:10:00,28.8,24.0,29.78,South,188,10.0,18.0,81,0.00,,,0.00,0,weatherlink.com 1.10,2013-02-21 10:10:00,
2013-02-21 03:25:00,28.7,24.0,29.79,SSW,193,9.0,17.0,82,0.00,,,0.00,0,weatherlink.com 1.10,2013-02-21 10:25:00,
2013-02-21 03:40:00,28.3,24.0,29.79,SSW,202,8.0,13.0,82,0.00,,,0.00,0,weatherlink.com 1.10,2013-02-21 10:40:00,
2013-02-21 03:55:00,28.1,23.0,29.80,SSW,195,7.0,18.0,80,0.00,,,0.00,0,weatherlink.com 1.10,2013-02-21 10:55:00,
2013-02-21 04:10:00,28.4,22.0,29.80,SW,216,5.0,14.0,78,0.00,,,0.00,0,weatherlink.com 1.10,2013-02-21 11:10:00,
2013-02-21 04:25:00,28.6,22.0,29.82,SW,234,5.0,12.0,76,0.00,,,0.00,0,weatherlink.com 1.10,2013-02-21 11:25:00,
2013-02-21 04:40:00,28.9,22.0,29.85,WSW,240,4.0,6.0,75,0.00,,,0.00,0,weatherlink.com 1.10,2013-02-21 11:40:00,
2013-02-21 04:55:00,29.5,22.0,29.85,SW,223,7.0,12.0,72,0.00,,,0.00,0,weatherlink.com 1.10,2013-02-21 11:55:00,
2013-02-21 05:10:00,29.4,21.0,29.84,SW,227,8.0,13.0,72,0.00,,,0.00,0,weatherlink.com 1.10,2013-02-21 12:10:00,
2013-02-21 05:25:00,29.6,22.0,29.85,WSW,239,4.0,13.0,72,0.00,,,0.00,0,weatherlink.com 1.10,2013-02-21 12:25:00,
2013-02-21 05:40:00,29.5,22.0,29.86,SSW,194,2.0,11.0,73,0.00,,,0.00,0,weatherlink.com 1.10,2013-02-21 12:40:00,
2013-02-21 05:55:00,29.4,22.0,29.87,SW,227,3.0,6.0,74,0.00,,,0.00,0,weatherlink.com 1.10,2013-02-21 12:55:00,
2013-02-21 06:10:00,29.2,22.0,29.88,WSW,237,7.0,10.0,74,0.00,,,0.00,0,weatherlink.com 1.10,2013-02-21 13:10:00,
2013-02-21 06:25:00,28.9,22.0,29.89,WSW,239,1.0,12.0,74,0.00,,,0.00,0,weatherlink.com 1.10,2013-02-21 13:25:00,
2013-02-21 06:40:00,28.8,22.0,29.90,SW,235,5.0,10.0,75,0.00,,,0.00,0,weatherlink.com 1.10,2013-02-21 13:40:00,
2013-02-21 06:55:00,28.5,22.0,29.91,WSW,257,3.0,5.0,76,0.00,,,0.00,9,weatherlink.com 1.10,2013-02-21 13:55:00,
2013-02-21 07:10:00,28.0,22.0,29.92,West,261,3.0,6.0,77,0.00,,,0.00,14,weatherlink.com 1.10,2013-02-21 14:10:00,
2013-02-21 07:25:00,28.2,22.0,29.93,West,262,1.0,5.0,77,0.00,,,0.00,46,weatherlink.com 1.10,2013-02-21 14:25:00,
2013-02-21 07:40:00,28.7,22.0,29.94,ESE,111,2.0,11.0,76,0.00,,,0.00,33,weatherlink.com 1.10,2013-02-21 14:40:00,
2013-02-21 07:55:00,29.1,22.0,29.95,ESE,111,0.0,4.0,74,0.00,,,0.00,60,weatherlink.com 1.10,2013-02-21 14:55:00,
2013-02-21 08:10:00,30.7,22.0,29.96,East,92,0.0,0.0,71,0.00,,,0.00,185,weatherlink.com 1.10,2013-02-21 15:10:00,
2013-02-21 08:26:00,31.3,22.0,29.97,SE,132,2.0,8.0,69,0.00,,,0.00,316,weatherlink.com 1.10,2013-02-21 15:26:00,
2013-02-21 08:41:00,32.5,23.0,29.98,SSE,153,3.0,7.0,67,0.00,,,0.00,274,weatherlink.com 1.10,2013-02-21 15:41:00,
2013-02-21 08:56:00,33.0,22.0,29.99,SSW,196,0.0,11.0,65,0.00,,,0.00,480,weatherlink.com 1.10,2013-02-21 15:56:00,
2013-02-21 09:11:00,33.6,23.0,29.99,SSW,199,3.0,9.0,64,0.00,,,0.00,142,weatherlink.com 1.10,2013-02-21 16:11:00,
2013-02-21 09:26:00,35.0,23.0,29.99,South,186,0.0,6.0,61,0.00,,,0.00,526,weatherlink.com 1.10,2013-02-21 16:26:00,
2013-02-21 09:41:00,35.7,23.0,29.99,SSW,196,6.0,10.0,60,0.00,,,0.00,538,weatherlink.com 1.10,2013-02-21 16:41:00,
2013-02-21 09:56:00,36.8,23.0,29.99,SSW,198,4.0,9.0,58,0.00,,,0.00,575,weatherlink.com 1.10,2013-02-21 16:56:00,
2013-02-21 10:11:00,37.3,23.0,29.98,SSW,198,5.0,7.0,57,0.00,,,0.00,613,weatherlink.com 1.10,2013-02-21 17:11:00,
2013-02-21 10:26:00,37.9,23.0,29.97,SW,223,5.0,8.0,56,0.00,,,0.00,645,weatherlink.com 1.10,2013-02-21 17:26:00,
2013-02-21 10:41:00,39.1,23.0,29.98,SSW,199,6.0,13.0,53,0.00,,,0.00,677,weatherlink.com 1.10,2013-02-21 17:41:00,
2013-02-21 10:56:00,39.4,23.0,29.96,SSW,194,7.0,9.0,53,0.00,,,0.00,705,weatherlink.com 1.10,2013-02-21 17:56:00,
2013-02-21 11:11:00,40.6,24.0,29.97,SSW,200,1.0,6.0,51,0.00,,,0.00,726,weatherlink.com 1.10,2013-02-21 18:11:00,
2013-02-21 11:26:00,41.7,23.0,29.96,SSW,192,11.0,16.0,48,0.00,,,0.00,740,weatherlink.com 1.10,2013-02-21 18:26:00,
2013-02-21 11:41:00,42.2,23.0,29.96,SSW,196,7.0,12.0,47,0.00,,,0.00,752,weatherlink.com 1.10,2013-02-21 18:41:00,
2013-02-21 11:56:00,42.9,23.0,29.96,South,175,13.0,16.0,46,0.00,,,0.00,766,weatherlink.com 1.10,2013-02-21 18:56:00,
2013-02-21 12:11:00,43.5,23.0,29.96,SSW,196,7.0,13.0,45,0.00,,,0.00,770,weatherlink.com 1.10,2013-02-21 19:11:00,
2013-02-21 12:26:00,43.8,22.0,29.95,SW,223,3.0,15.0,43,0.00,,,0.00,766,weatherlink.com 1.10,2013-02-21 19:26:00,
2013-02-21 12:41:00,45.0,24.0,29.95,SW,215,4.0,15.0,43,0.00,,,0.00,770,weatherlink.com 1.10,2013-02-21 19:41:00,
2013-02-21 12:56:00,45.8,24.0,29.95,SSW,200,14.0,15.0,43,0.00,,,0.00,780,weatherlink.com 1.10,2013-02-21 19:56:00,
2013-02-21 13:11:00,45.9,23.0,29.94,South,181,11.0,19.0,41,0.00,,,0.00,744,weatherlink.com 1.10,2013-02-21 20:11:00,
2013-02-21 13:27:00,46.8,23.0,29.93,SSW,207,7.0,15.0,40,0.00,,,0.00,731,weatherlink.com 1.10,2013-02-21 20:27:00,
2013-02-21 13:42:00,46.7,22.0,29.93,South,184,8.0,18.0,38,0.00,,,0.00,710,weatherlink.com 1.10,2013-02-21 20:42:00,
2013-02-21 13:57:00,46.4,22.0,29.93,South,171,6.0,15.0,38,0.00,,,0.00,687,weatherlink.com 1.10,2013-02-21 20:57:00,
2013-02-21 14:12:00,47.4,22.0,29.92,South,171,3.0,14.0,37,0.00,,,0.00,659,weatherlink.com 1.10,2013-02-21 21:12:00,
2013-02-21 14:27:00,47.5,23.0,29.92,SSW,194,5.0,21.0,39,0.00,,,0.00,629,weatherlink.com 1.10,2013-02-21 21:27:00,
2013-02-21 14:42:00,48.0,22.0,29.91,SW,216,2.0,13.0,36,0.00,,,0.00,592,weatherlink.com 1.10,2013-02-21 21:42:00,
2013-02-21 14:57:00,48.2,21.0,29.91,SW,220,6.0,15.0,34,0.00,,,0.00,559,weatherlink.com 1.10,2013-02-21 21:57:00,
2013-02-21 15:12:00,48.4,21.0,29.91,SSW,198,6.0,16.0,34,0.00,,,0.00,513,weatherlink.com 1.10,2013-02-21 22:12:00,
2013-02-21 15:27:00,48.6,22.0,29.90,SW,236,7.0,12.0,35,0.00,,,0.00,471,weatherlink.com 1.10,2013-02-21 22:27:00,
2013-02-21 15:42:00,48.8,20.0,29.91,WSW,254,13.0,18.0,32,0.00,,,0.00,427,weatherlink.com 1.10,2013-02-21 22:42:00,
2013-02-21 15:57:00,48.3,21.0,29.91,WSW,246,8.0,15.0,34,0.00,,,0.00,374,weatherlink.com 1.10,2013-02-21 22:57:00,
2013-02-21 16:12:00,48.2,21.0,29.91,West,259,9.0,17.0,34,0.00,,,0.00,323,weatherlink.com 1.10,2013-02-21 23:12:00,
2013-02-21 16:27:00,47.4,23.0,29.92,SSW,199,15.0,16.0,38,0.00,,,0.00,265,weatherlink.com 1.10,2013-02-21 23:27:00,
2013-02-21 16:42:00,47.5,22.0,29.92,SW,215,12.0,19.0,36,0.00,,,0.00,206,weatherlink.com 1.10,2013-02-21 23:42:00,
2013-02-21 16:57:00,46.5,23.0,29.93,SSW,200,7.0,17.0,39,0.00,,,0.00,148,weatherlink.com 1.10,2013-02-21 23:57:00,
2013-02-21 17:12:00,45.4,23.0,29.93,SW,221,8.0,19.0,42,0.00,,,0.00,90,weatherlink.com 1.10,2013-02-22 00:12:00,
2013-02-21 17:27:00,44.6,23.0,29.93,SSW,205,7.0,17.0,43,0.00,,,0.00,46,weatherlink.com 1.10,2013-02-22 00:27:00,
2013-02-21 17:42:00,43.5,23.0,29.95,SW,225,7.0,15.0,45,0.00,,,0.00,18,weatherlink.com 1.10,2013-02-22 00:42:00,
2013-02-21 17:57:00,42.4,23.0,29.95,SSW,198,8.0,13.0,47,0.00,,,0.00,5,weatherlink.com 1.10,2013-02-22 00:57:00,
2013-02-21 18:12:00,41.6,24.0,29.96,SSW,207,6.0,12.0,49,0.00,,,0.00,0,weatherlink.com 1.10,2013-02-22 01:12:00,
2013-02-21 18:27:00,41.0,23.0,29.97,SSW,211,1.0,11.0,50,0.00,,,0.00,0,weatherlink.com 1.10,2013-02-22 01:27:00,
2013-02-21 18:42:00,40.6,24.0,29.98,SW,219,1.0,8.0,51,0.00,,,0.00,0,weatherlink.com 1.10,2013-02-22 01:42:00,
2013-02-21 18:57:00,40.4,24.0,29.99,SSW,202,1.0,9.0,52,0.00,,,0.00,0,weatherlink.com 1.10,2013-02-22 01:57:00,
2013-02-21 19:12:00,39.9,24.0,29.99,SSW,211,0.0,6.0,53,0.00,,,0.00,0,weatherlink.com 1.10,2013-02-22 02:12:00,
2013-02-21 19:27:00,39.5,24.0,29.99,SSW,194,0.0,6.0,54,0.00,,,0.00,0,weatherlink.com 1.10,2013-02-22 02:27:00,
2013-02-21 19:42:00,39.1,24.0,29.99,SSW,194,1.0,2.0,55,0.00,,,0.00,0,weatherlink.com 1.10,2013-02-22 02:42:00,
2013-02-21 19:57:00,38.6,24.0,30.00,South,188,3.0,4.0,56,0.00,,,0.00,0,weatherlink.com 1.10,2013-02-22 02:57:00,
2013-02-21 20:12:00,38.3,24.0,30.00,SW,222,1.0,6.0,57,0.00,,,0.00,0,weatherlink.com 1.10,2013-02-22 03:12:00,
2013-02-21 20:27:00,38.2,24.0,30.01,SW,236,10.0,10.0,57,0.00,,,0.00,0,weatherlink.com 1.10,2013-02-22 03:27:00,
2013-02-21 20:42:00,38.2,24.0,30.00,WSW,245,0.0,6.0,56,0.00,,,0.00,0,weatherlink.com 1.10,2013-02-22 03:42:00,
2013-02-21 20:57:00,37.7,23.0,30.00,West,270,3.0,6.0,56,0.00,,,0.00,0,weatherlink.com 1.10,2013-02-22 03:57:00,
2013-02-21 21:12:00,37.6,23.0,30.01,West,270,4.0,4.0,56,0.00,,,0.00,0,weatherlink.com 1.10,2013-02-22 04:12:00,
2013-02-21 21:27:00,37.1,23.0,30.02,WNW,282,0.0,4.0,57,0.00,,,0.00,0,weatherlink.com 1.10,2013-02-22 04:27:00,
2013-02-21 21:42:00,37.5,23.0,30.02,WNW,284,2.0,6.0,55,0.00,,,0.00,0,weatherlink.com 1.10,2013-02-22 04:42:00,
2013-02-21 21:57:00,37.3,22.0,30.02,WNW,284,0.0,4.0,55,0.00,,,0.00,0,weatherlink.com 1.10,2013-02-22 04:57:00,
2013-02-21 22:12:00,36.9,22.0,30.01,WNW,284,2.0,4.0,56,0.00,,,0.00,0,weatherlink.com 1.10,2013-02-22 05:12:00,
2013-02-21 22:27:00,36.7,23.0,30.01,NNW,347,6.0,9.0,57,0.00,,,0.00,0,weatherlink.com 1.10,2013-02-22 05:27:00,
2013-02-21 22:42:00,37.2,23.0,30.00,NW,309,4.0,10.0,56,0.00,,,0.00,0,weatherlink.com 1.10,2013-02-22 05:42:00,
2013-02-21 22:57:00,37.8,22.0,30.00,NW,310,5.0,9.0,53,0.00,,,0.00,0,weatherlink.com 1.10,2013-02-22 05:57:00,
2013-02-21 23:12:00,38.1,21.0,30.00,North,349,8.0,11.0,51,0.00,,,0.00,0,weatherlink.com 1.10,2013-02-22 06:12:00,
2013-02-21 23:27:00,38.2,20.0,30.00,NNW,329,7.0,10.0,49,0.00,,,0.00,0,weatherlink.com 1.10,2013-02-22 06:27:00,
2013-02-21 23:42:00,39.0,20.0,30.00,NNW,327,6.0,11.0,47,0.00,,,0.00,0,weatherlink.com 1.10,2013-02-22 06:42:00,
2013-02-21 23:57:00,37.7,20.0,30.01,NNW,329,4.0,6.0,49,0.00,,,0.00,0,weatherlink.com 1.10,2013-02-22 06:57:00,